Time;durP1;ratioP1;P1;durP2;ratioP2;P2;SDS_P1;SDS_P2;PMS_P1;PMS_P2;Temp;Humidity;BMP_temperature;BMP_pressure;BME280_temperature;BME280_humidity;BME280_pressure;Samples;Min_cycle;Max_cycle;Signal;HPM_P1;HPM_P2
2022/09/09 00:02:05;;;;;;;2.90;1.70;;;;;;;14.65;100.00;100651.78;5054309;28;20364;-61
2022/09/09 00:04:35;;;;;;;3.08;1.63;;;;;;;14.67;100.00;100651.75;5054511;28;20114;-62
2022/09/09 00:07:13;;;;;;;2.65;1.40;;;;;;;14.65;100.00;100648.28;5053767;28;20036;-59
2022/09/09 00:09:49;;;;;;;2.97;1.42;;;;;;;14.61;100.00;100647.53;5054352;28;20071;-60
2022/09/09 00:12:27;;;;;;;4.05;1.67;;;;;;;14.53;100.00;100637.25;5054351;28;20032;-60
2022/09/09 00:15:05;;;;;;;5.22;1.50;;;;;;;14.54;100.00;100646.03;5054155;28;20044;-61
2022/09/09 00:17:33;;;;;;;4.13;1.50;;;;;;;14.59;100.00;100644.06;5053951;28;20025;-61
2022/09/09 00:20:11;;;;;;;1.92;1.40;;;;;;;14.45;100.00;100641.03;5053570;28;20492;-62
2022/09/09 00:22:43;;;;;;;2.22;1.40;;;;;;;14.40;100.00;100640.28;5053760;28;20033;-62
2022/09/09 00:25:16;;;;;;;2.53;1.63;;;;;;;14.48;100.00;100647.06;5054425;28;20033;-60
2022/09/09 00:27:46;;;;;;;2.60;1.60;;;;;;;14.43;100.00;100648.13;5053874;28;20044;-63
2022/09/09 00:30:24;;;;;;;3.30;1.40;;;;;;;14.42;100.00;100643.78;5053897;28;20120;-61
2022/09/09 00:32:54;;;;;;;2.88;1.50;;;;;;;14.41;100.00;100640.28;5053572;28;20111;-62
2022/09/09 00:35:32;;;;;;;2.50;1.48;;;;;;;14.49;100.00;100640.91;5053787;28;20051;-62
2022/09/09 00:38:10;;;;;;;3.10;1.42;;;;;;;14.47;100.00;100640.09;5053844;28;20125;-61
2022/09/09 00:40:43;;;;;;;3.25;1.40;;;;;;;14.41;100.00;100629.75;5053689;28;20067;-61
2022/09/09 00:43:29;;;;;;;4.00;1.20;;;;;;;14.46;100.00;100633.09;5053206;28;20053;-61
2022/09/09 00:46:33;;;;;;;3.13;1.33;;;;;;;14.51;100.00;100625.06;5053105;28;20033;-63
2022/09/09 00:49:23;;;;;;;2.63;1.40;;;;;;;14.48;100.00;100622.50;5050108;28;20044;-63
2022/09/09 00:52:04;;;;;;;3.35;1.50;;;;;;;14.46;100.00;100616.44;5053260;28;20040;-61
2022/09/09 00:54:58;;;;;;;4.30;1.40;;;;;;;14.43;100.00;100617.41;5053509;28;20036;-62
2022/09/09 00:57:35;;;;;;;3.40;1.50;;;;;;;14.47;100.00;100621.66;5029345;28;20052;-62
2022/09/09 01:00:18;;;;;;;4.60;1.38;;;;;;;14.41;100.00;100619.22;5053077;28;20045;-60
2022/09/09 01:03:05;;;;;;;3.83;1.35;;;;;;;14.38;100.00;100618.41;5053248;28;20032;-63
2022/09/09 01:05:42;;;;;;;3.40;1.33;;;;;;;14.37;100.00;100612.31;5053086;28;20051;-61
2022/09/09 01:08:33;;;;;;;2.80;1.40;;;;;;;14.38;100.00;100614.00;5053059;28;20040;-62
2022/09/09 01:10:59;;;;;;;3.88;1.42;;;;;;;14.35;100.00;100616.75;5053150;28;20037;-59
2022/09/09 01:13:30;;;;;;;2.42;1.58;;;;;;;14.35;100.00;100619.41;5053054;28;20043;-62
2022/09/09 01:15:59;;;;;;;3.65;1.38;;;;;;;14.29;100.00;100609.06;5052798;28;20029;-60
2022/09/09 01:18:48;;;;;;;3.15;1.50;;;;;;;14.35;100.00;100613.28;5052839;28;20124;-60
2022/09/09 01:21:28;;;;;;;4.30;1.33;;;;;;;14.31;100.00;100615.13;5052982;28;20038;-62
2022/09/09 01:24:05;;;;;;;3.15;1.52;;;;;;;14.32;100.00;100608.97;5052401;28;20040;-61
2022/09/09 01:26:37;;;;;;;3.50;1.48;;;;;;;14.35;100.00;100608.00;5052754;28;20033;-60
2022/09/09 01:29:06;;;;;;;2.97;1.58;;;;;;;14.26;100.00;100598.63;5052442;28;20581;-59
2022/09/09 01:31:41;;;;;;;3.78;1.80;;;;;;;14.32;100.00;100613.38;5052872;28;20167;-61
2022/09/09 01:34:14;;;;;;;4.45;1.92;;;;;;;14.23;100.00;100602.22;5052540;28;20455;-63
2022/09/09 01:37:01;;;;;;;4.32;1.98;;;;;;;14.27;100.00;100601.22;5052669;28;20132;-61
2022/09/09 01:39:27;;;;;;;4.10;2.10;;;;;;;14.25;100.00;100599.53;5052859;28;20056;-62
2022/09/09 01:41:55;;;;;;;5.28;1.88;;;;;;;14.24;100.00;100598.66;5052284;28;20079;-61
2022/09/09 01:44:21;;;;;;;3.17;1.80;;;;;;;14.22;100.00;100597.00;5052472;28;20059;-59
2022/09/09 01:46:46;;;;;;;5.03;1.95;;;;;;;14.24;100.00;100593.41;5052258;28;20032;-61
2022/09/09 01:49:12;;;;;;;2.67;1.80;;;;;;;14.20;100.00;100596.19;5052496;28;20043;-60
2022/09/09 01:51:41;;;;;;;6.05;2.35;;;;;;;14.20;100.00;100591.78;5052307;28;20178;-62
2022/09/09 01:54:07;;;;;;;5.20;2.10;;;;;;;14.16;100.00;100592.81;5052172;28;20713;-61
2022/09/09 01:56:51;;;;;;;3.30;1.88;;;;;;;14.21;100.00;100592.63;5052278;28;20036;-61
2022/09/09 01:59:25;;;;;;;5.20;2.10;;;;;;;14.06;100.00;100570.31;5051802;28;20757;-62
2022/09/09 02:02:12;;;;;;;4.18;2.47;;;;;;;14.17;100.00;100591.91;5052088;28;20497;-61
2022/09/09 02:04:45;;;;;;;5.72;2.20;;;;;;;14.12;100.00;100588.53;5052209;28;20078;-60
2022/09/09 02:07:40;;;;;;;6.55;2.50;;;;;;;14.13;100.00;100578.88;5051752;28;20041;-62
2022/09/09 02:10:11;;;;;;;5.03;2.22;;;;;;;14.11;100.00;100580.69;5051945;28;20044;-62
2022/09/09 02:12:42;;;;;;;5.82;2.30;;;;;;;14.08;100.00;100573.75;5052097;28;20063;-63
2022/09/09 02:15:17;;;;;;;4.30;2.38;;;;;;;14.12;100.00;100575.38;5051909;28;20037;-60
2022/09/09 02:17:42;;;;;;;4.72;2.45;;;;;;;14.01;100.00;100566.13;5051599;28;20554;-60
2022/09/09 02:20:12;;;;;;;4.82;2.58;;;;;;;14.03;100.00;100575.66;5052181;28;20040;-61
2022/09/09 02:22:41;;;;;;;4.32;2.60;;;;;;;14.03;100.00;100586.19;5051355;28;20071;-62
2022/09/09 02:25:10;;;;;;;5.00;2.50;;;;;;;14.06;100.00;100585.25;5051866;28;20097;-61
2022/09/09 02:27:35;;;;;;;5.88;2.55;;;;;;;14.00;100.00;100569.66;5051783;28;20029;-62
2022/09/09 02:30:02;;;;;;;4.70;2.50;;;;;;;14.05;100.00;100567.72;5052023;28;20044;-61
2022/09/09 02:32:30;;;;;;;4.75;2.55;;;;;;;14.04;100.00;100574.75;5051899;28;20048;-63
2022/09/09 02:35:26;;;;;;;6.43;2.70;;;;;;;14.02;100.00;100573.97;5051305;28;20071;-60
2022/09/09 02:37:56;;;;;;;5.43;2.47;;;;;;;13.94;100.00;100562.81;5038789;28;20463;-61
2022/09/09 02:40:23;;;;;;;5.28;2.45;;;;;;;13.93;100.00;100564.59;5051819;28;20033;-62
2022/09/09 02:42:49;;;;;;;5.80;2.63;;;;;;;13.91;100.00;100561.13;5051645;28;20057;-61
2022/09/09 02:45:24;;;;;;;7.18;2.50;;;;;;;13.97;100.00;100562.72;5051823;28;20041;-61
2022/09/09 02:48:05;;;;;;;6.35;2.50;;;;;;;13.95;100.00;100559.28;5051543;28;20028;-59
2022/09/09 02:50:35;;;;;;;6.78;2.40;;;;;;;13.95;100.00;100567.16;5051587;28;20086;-60
2022/09/09 02:53:15;;;;;;;6.13;2.60;;;;;;;13.93;100.00;100569.84;5051569;28;20401;-60
2022/09/09 02:55:54;;;;;;;6.85;2.70;;;;;;;13.92;100.00;100570.75;5051608;28;20045;-61
2022/09/09 02:58:20;;;;;;;6.28;2.38;;;;;;;13.94;100.00;100568.09;5051484;28;20028;-63
2022/09/09 03:00:47;;;;;;;6.43;2.65;;;;;;;13.93;100.00;100576.88;5051402;28;20041;-61
2022/09/09 03:03:13;;;;;;;8.85;2.47;;;;;;;13.94;100.00;100575.97;5051363;28;20033;-62
2022/09/09 03:05:38;;;;;;;5.90;2.30;;;;;;;13.94;100.00;100574.19;5051747;28;20052;-62
2022/09/09 03:08:05;;;;;;;4.55;2.50;;;;;;;13.99;100.00;100578.47;5051387;28;20043;-61
2022/09/09 03:10:31;;;;;;;5.75;2.40;;;;;;;13.98;100.00;100574.13;5054692;28;20125;-62
2022/09/09 03:12:56;;;;;;;3.65;2.15;;;;;;;13.89;100.00;100573.47;5055423;28;20094;-60
2022/09/09 03:15:21;;;;;;;5.88;2.70;;;;;;;13.90;100.00;100566.44;5055160;28;20037;-61
2022/09/09 03:17:47;;;;;;;6.03;2.65;;;;;;;13.94;100.00;100575.97;5055248;28;20047;-62
2022/09/09 03:20:12;;;;;;;6.40;2.28;;;;;;;13.93;100.00;100579.50;5055377;28;20050;-63
2022/09/09 03:22:38;;;;;;;8.63;2.50;;;;;;;13.94;100.00;100583.88;5055366;28;20033;-60
2022/09/09 03:25:03;;;;;;;6.63;2.88;;;;;;;13.95;100.00;100582.97;5055223;28;20040;-60
2022/09/09 03:27:29;;;;;;;7.70;2.47;;;;;;;13.93;100.00;100585.63;5055056;28;20115;-61
2022/09/09 03:29:55;;;;;;;5.43;2.50;;;;;;;13.97;100.00;100590.81;5054998;28;20041;-62
2022/09/09 03:32:22;;;;;;;7.85;2.60;;;;;;;13.99;100.00;100586.34;5055095;28;20372;-62
2022/09/09 03:34:49;;;;;;;6.00;2.50;;;;;;;14.01;100.00;100585.41;5054920;28;20033;-62
2022/09/09 03:37:15;;;;;;;6.90;2.60;;;;;;;14.02;100.00;100584.50;5055045;28;20029;-62
2022/09/09 03:39:40;;;;;;;6.75;2.53;;;;;;;14.00;100.00;100581.06;5055008;28;20414;-60
2022/09/09 03:42:06;;;;;;;8.98;2.60;;;;;;;13.88;100.00;100558.59;5054865;28;20128;-59
2022/09/09 03:44:31;;;;;;;7.10;2.10;;;;;;;13.99;100.00;100576.69;5054737;28;20053;-61
2022/09/09 03:46:57;;;;;;;5.07;2.40;;;;;;;13.96;100.00;100575.94;5054864;28;20037;-61
2022/09/09 03:49:23;;;;;;;5.43;2.40;;;;;;;13.88;100.00;100561.22;5054775;28;20436;-61
2022/09/09 03:51:48;;;;;;;4.75;2.28;;;;;;;13.96;100.00;100579.41;5054535;28;20122;-62
2022/09/09 03:54:13;;;;;;;5.18;2.30;;;;;;;14.01;100.00;100574.03;5054770;28;20032;-60
2022/09/09 03:56:41;;;;;;;7.93;2.42;;;;;;;13.98;100.00;100577.59;5054567;28;20072;-62
2022/09/09 03:59:07;;;;;;;6.80;2.40;;;;;;;14.01;100.00;100574.03;5054220;28;20459;-62
2022/09/09 04:01:33;;;;;;;5.78;2.42;;;;;;;14.04;100.00;100579.16;5054586;28;20060;-60
2022/09/09 04:03:58;;;;;;;4.97;2.35;;;;;;;14.01;100.00;100572.25;5054495;28;20087;-61
2022/09/09 04:06:24;;;;;;;7.13;2.30;;;;;;;14.04;100.00;100572.13;5054434;28;20436;-62
2022/09/09 04:08:51;;;;;;;6.47;2.65;;;;;;;13.99;100.00;100568.81;5054358;28;20043;-61
2022/09/09 04:11:17;;;;;;;6.68;2.85;;;;;;;13.98;100.00;100560.97;5054368;28;20037;-59
2022/09/09 04:13:44;;;;;;;7.90;2.40;;;;;;;13.95;100.00;100559.28;5054298;28;20124;-63
2022/09/09 04:16:12;;;;;;;7.25;2.72;;;;;;;14.06;100.00;100569.44;5054223;28;20048;-60
2022/09/09 04:18:38;;;;;;;6.95;2.45;;;;;;;14.05;100.00;100565.09;5054355;28;20091;-60
2022/09/09 04:21:05;;;;;;;8.13;3.25;;;;;;;14.02;100.00;100568.72;5053507;28;20443;-60
2022/09/09 04:23:30;;;;;;;6.78;2.70;;;;;;;14.03;100.00;100570.41;5054203;28;20032;-60
2022/09/09 04:25:57;;;;;;;5.32;2.40;;;;;;;14.03;100.00;100557.25;5053955;28;20044;-61
2022/09/09 04:28:25;;;;;;;7.30;2.67;;;;;;;14.11;100.00;100554.38;5053862;28;20091;-60
2022/09/09 04:30:52;;;;;;;5.43;2.30;;;;;;;14.10;100.00;100556.16;5053922;28;20063;-59
2022/09/09 04:33:18;;;;;;;11.48;2.67;;;;;;;14.11;100.00;100565.78;5053841;28;20098;-61
2022/09/09 04:35:45;;;;;;;13.75;2.83;;;;;;;14.08;100.00;100559.75;5053905;28;20064;-60
2022/09/09 04:38:10;;;;;;;6.57;3.20;;;;;;;14.09;100.00;100548.31;5054156;28;20052;-60
2022/09/09 04:40:36;;;;;;;11.80;2.90;;;;;;;14.07;100.00;100558.00;5053653;28;20032;-60
2022/09/09 04:43:06;;;;;;;7.00;3.20;;;;;;;14.06;100.00;100551.91;5053495;28;20096;-60
2022/09/09 04:45:33;;;;;;;5.85;3.10;;;;;;;14.06;100.00;100551.91;5053731;28;20116;-61
2022/09/09 04:47:59;;;;;;;5.45;2.75;;;;;;;14.08;100.00;100552.72;5053565;28;20048;-59
2022/09/09 04:50:24;;;;;;;8.32;2.70;;;;;;;14.03;100.00;100544.09;5053634;28;20025;-61
2022/09/09 04:52:50;;;;;;;7.22;2.83;;;;;;;14.06;100.00;100549.25;5053621;28;20119;-62
2022/09/09 04:55:15;;;;;;;6.47;2.92;;;;;;;13.99;100.00;100544.25;5053432;28;20364;-57
2022/09/09 04:57:41;;;;;;;7.13;2.60;;;;;;;14.00;100.00;100536.31;5053482;28;20037;-60
2022/09/09 05:00:07;;;;;;;7.03;2.83;;;;;;;14.02;100.00;100542.41;5053311;28;20102;-59
2022/09/09 05:02:33;;;;;;;11.23;3.03;;;;;;;14.05;100.00;100544.91;5053339;28;20059;-61
2022/09/09 05:04:58;;;;;;;8.55;3.30;;;;;;;14.08;100.00;100542.19;5053410;28;20037;-65
2022/09/09 05:07:26;;;;;;;9.77;2.90;;;;;;;14.11;100.00;100547.34;5053157;28;20482;-61
2022/09/09 05:09:51;;;;;;;8.88;2.63;;;;;;;14.15;100.00;100537.59;5053106;28;20626;-60
2022/09/09 05:12:16;;;;;;;9.40;2.90;;;;;;;14.10;100.00;100543.00;5052952;28;20083;-59
2022/09/09 05:14:44;;;;;;;8.80;2.80;;;;;;;14.04;100.00;100532.66;5053182;28;20120;-61
2022/09/09 05:17:10;;;;;;;6.10;2.60;;;;;;;14.11;100.00;100542.09;5052991;28;20029;-60
2022/09/09 05:19:36;;;;;;;8.30;2.40;;;;;;;14.11;100.00;100541.22;5053051;28;20115;-58
2022/09/09 05:22:01;;;;;;;10.18;2.50;;;;;;;14.16;100.00;100548.06;5053074;28;20047;-60
2022/09/09 05:24:27;;;;;;;8.45;2.90;;;;;;;14.19;100.00;100544.47;5052911;28;20463;-59
2022/09/09 05:26:52;;;;;;;11.43;2.90;;;;;;;14.12;100.00;100524.53;5052722;28;20059;-61
2022/09/09 05:29:19;;;;;;;10.55;2.70;;;;;;;14.18;100.00;100542.75;5052881;28;20424;-60
2022/09/09 05:31:45;;;;;;;9.27;2.60;;;;;;;14.12;100.00;100525.38;5052476;28;20107;-59
2022/09/09 05:34:11;;;;;;;9.40;2.80;;;;;;;14.20;100.00;100528.63;5051930;28;20132;-59
2022/09/09 05:36:36;;;;;;;8.07;2.53;;;;;;;14.21;100.00;100532.97;5052663;28;20033;-59
2022/09/09 05:39:01;;;;;;;10.68;2.90;;;;;;;14.23;100.00;100531.16;5052417;28;20071;-61
2022/09/09 05:41:28;;;;;;;7.22;2.55;;;;;;;14.21;100.00;100538.22;5052826;28;20095;-60
2022/09/09 05:43:53;;;;;;;5.07;2.35;;;;;;;14.24;100.00;100537.28;5052271;28;20060;-60
2022/09/09 05:46:21;;;;;;;8.70;2.65;;;;;;;14.28;100.00;100533.63;5052441;28;20110;-60
2022/09/09 05:48:49;;;;;;;12.38;2.90;;;;;;;14.32;100.00;100552.81;5054652;28;20041;-59
2022/09/09 05:51:20;;;;;;;11.35;2.53;;;;;;;14.44;100.00;100555.94;5052435;28;20080;-60
2022/09/09 05:53:46;;;;;;;9.75;2.95;;;;;;;14.41;100.00;100555.16;5052235;28;20127;-61
2022/09/09 05:56:14;;;;;;;6.50;2.42;;;;;;;14.47;100.00;100557.59;5052249;28;20539;-61
2022/09/09 05:58:40;;;;;;;10.65;2.70;;;;;;;14.44;100.00;100560.34;5054652;28;20028;-60
2022/09/09 06:01:09;;;;;;;9.48;2.60;;;;;;;14.47;100.00;100561.09;5061217;28;20649;-61
2022/09/09 06:03:36;;;;;;;8.40;2.28;;;;;;;14.47;100.00;100558.47;5072294;28;20032;-59
2022/09/09 06:06:06;;;;;;;10.85;2.88;;;;;;;14.51;100.00;100561.84;5072031;28;20036;-60
2022/09/09 06:08:33;;;;;;;7.75;2.53;;;;;;;14.53;100.00;100549.50;5071859;28;20455;-62
2022/09/09 06:11:13;;;;;;;11.70;3.17;;;;;;;14.63;100.00;100549.13;5071977;28;20041;-59
2022/09/09 06:13:40;;;;;;;12.05;2.80;;;;;;;14.71;100.00;100551.50;5072056;28;20032;-60
2022/09/09 06:16:11;;;;;;;9.77;2.78;;;;;;;14.80;100.00;100558.22;5072039;28;20072;-58
2022/09/09 06:18:38;;;;;;;10.38;2.50;;;;;;;14.90;100.00;100554.31;5066946;28;20032;-60
2022/09/09 06:21:06;;;;;;;12.88;2.88;;;;;;;15.07;100.00;100556.34;5051802;28;20040;-61
2022/09/09 06:23:35;;;;;;;10.45;2.47;;;;;;;15.11;100.00;100547.41;5071125;28;20036;-60
2022/09/09 06:26:10;;;;;;;8.55;2.35;;;;;;;15.29;100.00;100546.72;5071804;28;20044;-60
2022/09/09 06:28:36;;;;;;;8.85;2.28;;;;;;;15.24;100.00;100551.31;5071761;28;20071;-60
2022/09/09 06:31:04;;;;;;;10.68;2.72;;;;;;;15.17;100.00;100563.88;5071558;28;20048;-61
2022/09/09 06:33:34;;;;;;;11.48;2.80;;;;;;;15.22;100.00;100558.44;5071662;28;20067;-60
2022/09/09 06:36:01;;;;;;;9.52;2.67;;;;;;;15.16;100.00;100550.75;5071583;28;20131;-61
2022/09/09 06:38:26;;;;;;;10.65;2.30;;;;;;;15.17;100.00;100555.97;5071421;28;20040;-60
2022/09/09 06:40:54;;;;;;;10.65;2.58;;;;;;;15.18;100.00;100560.31;5071715;28;20055;-61
2022/09/09 06:43:20;;;;;;;8.05;2.35;;;;;;;15.14;100.00;100545.53;5071377;28;20052;-60
2022/09/09 06:46:03;;;;;;;12.52;3.15;;;;;;;15.15;100.00;100549.03;5071493;28;20043;-60
2022/09/09 06:48:30;;;;;;;9.45;3.05;;;;;;;15.07;100.00;100540.53;5071348;28;20411;-60
2022/09/09 06:51:08;;;;;;;8.60;2.47;;;;;;;15.14;100.00;100545.53;5071572;28;20093;-60
2022/09/09 06:53:35;;;;;;;9.93;2.85;;;;;;;15.17;100.00;100549.84;5050742;28;20041;-60
2022/09/09 06:56:09;;;;;;;14.25;2.72;;;;;;;15.28;100.00;100547.66;5051079;28;20041;-61
2022/09/09 06:58:34;;;;;;;10.23;2.92;;;;;;;15.24;100.00;100540.75;5051251;28;20436;-60
2022/09/09 07:01:06;;;;;;;12.48;2.78;;;;;;;15.26;100.00;100546.84;5051146;28;20116;-61
2022/09/09 07:03:32;;;;;;;;;;;;;;;15.47;100.00;100550.44;5051659;28;20107;-60
2022/09/09 07:05:57;;;;;;;12.32;2.75;;;;;;;15.51;100.00;100552.91;5051439;28;20307;-60
2022/09/09 07:08:24;;;;;;;9.43;2.90;;;;;;;15.64;100.00;100553.34;5051490;28;20094;-61
2022/09/09 07:10:51;;;;;;;7.38;2.60;;;;;;;15.70;100.00;100554.88;5051202;28;20037;-60
2022/09/09 07:13:16;;;;;;;7.75;2.63;;;;;;;15.77;100.00;100554.56;5051357;28;20037;-61
2022/09/09 07:15:41;;;;;;;10.80;3.05;;;;;;;15.79;100.00;100554.50;5051478;28;20037;-61
2022/09/09 07:18:09;;;;;;;10.00;2.53;;;;;;;15.93;100.00;100550.41;5051106;28;20024;-59
2022/09/09 07:20:35;;;;;;;9.82;2.63;;;;;;;16.10;100.00;100555.03;5051219;28;20348;-58
2022/09/09 07:23:00;;;;;;;7.05;2.40;;;;;;;16.07;100.00;100549.00;5051178;28;20067;-60
2022/09/09 07:25:28;;;;;;;7.50;2.50;;;;;;;16.08;100.00;100545.44;5050935;28;20055;-61
2022/09/09 07:27:54;;;;;;;10.27;2.75;;;;;;;16.20;99.87;100543.16;5050947;28;20324;-61
2022/09/09 07:30:20;;;;;;;7.40;2.70;;;;;;;16.28;98.35;100541.03;5051063;28;20108;-61
2022/09/09 07:32:45;;;;;;;9.18;2.55;;;;;;;16.24;99.03;100542.09;5051073;28;20148;-60
2022/09/09 07:35:10;;;;;;;8.13;2.58;;;;;;;16.23;98.85;100545.66;5051220;28;20037;-58
2022/09/09 07:37:37;;;;;;;9.23;2.70;;;;;;;16.32;98.47;100553.19;5050936;28;20470;-60
2022/09/09 07:40:04;;;;;;;7.65;2.42;;;;;;;16.43;98.26;100557.19;5051100;28;20033;-61
2022/09/09 07:42:29;;;;;;;8.90;2.35;;;;;;;16.47;98.47;100556.97;5050830;28;20380;-60
2022/09/09 07:44:55;;;;;;;11.55;2.55;;;;;;;16.45;96.32;100555.34;5051020;28;20033;-61
2022/09/09 07:47:20;;;;;;;11.60;2.33;;;;;;;16.45;97.00;100561.47;5050727;28;20037;-61
2022/09/09 07:49:46;;;;;;;7.53;2.50;;;;;;;16.48;95.40;100561.34;5050885;28;20029;-62
2022/09/09 07:52:12;;;;;;;7.20;2.53;;;;;;;16.47;96.00;100540.25;5059386;28;20032;-60
2022/09/09 07:54:37;;;;;;;8.43;2.25;;;;;;;16.55;95.17;100554.88;5070989;28;20064;-62
2022/09/09 07:57:04;;;;;;;6.85;1.95;;;;;;;16.64;94.04;100548.34;5073085;28;20320;-61
2022/09/09 07:59:30;;;;;;;9.93;2.17;;;;;;;16.61;94.59;100551.13;5074590;28;20063;-61
2022/09/09 08:01:55;;;;;;;8.55;2.08;;;;;;;16.72;94.21;100543.63;5074266;28;20403;-61
2022/09/09 08:04:22;;;;;;;9.57;2.10;;;;;;;16.80;93.55;100559.97;5074310;28;20056;-60
2022/09/09 08:06:54;;;;;;;9.55;2.45;;;;;;;16.96;93.25;100550.47;5074390;28;20078;-63
2022/09/09 08:09:20;;;;;;;7.47;2.10;;;;;;;17.02;91.76;100552.84;5074307;28;20055;-62
2022/09/09 08:11:45;;;;;;;10.73;1.98;;;;;;;16.95;91.54;100547.91;5074107;28;20432;-61
2022/09/09 08:14:12;;;;;;;11.65;2.40;;;;;;;16.94;93.21;100554.13;5074527;28;20043;-63
2022/09/09 08:16:41;;;;;;;6.80;1.80;;;;;;;17.07;91.14;100551.78;5074128;28;20037;-62
2022/09/09 08:19:07;;;;;;;10.23;2.83;;;;;;;17.21;90.02;100549.38;5074231;28;20467;-61
2022/09/09 08:21:33;;;;;;;12.38;2.20;;;;;;;17.28;90.05;100543.75;5073572;28;20115;-61
2022/09/09 08:24:00;;;;;;;7.65;2.10;;;;;;;17.32;88.73;100550.56;5073859;28;20119;-60
2022/09/09 08:26:31;;;;;;;9.98;2.50;;;;;;;17.33;89.10;100549.66;5073466;28;20422;-60
2022/09/09 08:28:58;;;;;;;8.40;2.00;;;;;;;17.27;89.24;100544.66;5073996;28;20094;-60
2022/09/09 08:31:33;;;;;;;7.95;1.92;;;;;;;17.33;90.29;100554.09;5074007;28;20043;-61
2022/09/09 08:34:01;;;;;;;9.30;2.30;;;;;;;17.34;89.05;100554.00;5073660;28;20101;-61
2022/09/09 08:36:29;;;;;;;7.57;1.98;;;;;;;17.34;87.64;100554.00;5073753;28;20067;-61
2022/09/09 08:38:56;;;;;;;10.02;2.10;;;;;;;17.37;89.56;100553.03;5073705;28;20062;-61
2022/09/09 08:41:49;;;;;;;9.45;2.17;;;;;;;17.28;88.58;100566.69;5073775;28;20123;-61
2022/09/09 08:44:23;;;;;;;7.85;2.08;;;;;;;17.18;87.44;100566.22;5073536;28;20059;-61
2022/09/09 08:47:01;;;;;;;6.15;1.80;;;;;;;16.95;89.53;100551.41;5073271;28;20039;-61
2022/09/09 08:49:58;;;;;;;9.23;2.25;;;;;;;17.09;89.89;100563.16;5073113;28;20039;-61
2022/09/09 08:52:49;;;;;;;5.63;2.17;;;;;;;17.18;89.23;100565.38;5073613;28;20024;-62
2022/09/09 08:55:31;;;;;;;10.43;2.13;;;;;;;17.24;88.59;100565.09;5073350;28;20040;-62
2022/09/09 08:58:00;;;;;;;9.85;1.90;;;;;;;17.26;88.35;100579.13;5073327;28;20067;-61
2022/09/09 09:00:40;;;;;;;7.15;2.17;;;;;;;17.36;87.78;100575.09;5073392;28;20048;-62
2022/09/09 09:03:12;;;;;;;8.90;2.25;;;;;;;17.41;88.57;100567.84;5073364;28;20042;-63
2022/09/09 09:05:59;;;;;;;8.00;2.00;;;;;;;17.51;88.19;100569.09;5073364;28;20071;-62
2022/09/09 09:08:46;;;;;;;8.27;2.08;;;;;;;17.55;87.05;100578.63;5072426;28;20486;-61
2022/09/09 09:11:11;;;;;;;9.30;2.00;;;;;;;17.49;85.72;100573.59;5072923;28;20047;-62
2022/09/09 09:13:51;;;;;;;8.15;1.90;;;;;;;17.50;85.90;100585.06;5073086;28;20052;-62
2022/09/09 09:16:33;;;;;;;8.77;2.38;;;;;;;17.55;85.81;100588.34;5072904;28;20056;-63
2022/09/09 09:19:00;;;;;;;9.50;2.13;;;;;;;17.52;84.74;100580.56;5072888;28;20067;-63
2022/09/09 09:21:39;;;;;;;7.65;2.00;;;;;;;17.42;85.09;100590.72;5073053;28;20040;-61
2022/09/09 09:24:15;;;;;;;7.53;2.03;;;;;;;17.33;86.07;100596.41;5072835;28;20040;-62
2022/09/09 09:26:42;;;;;;;8.35;2.05;;;;;;;17.21;87.45;100591.66;5072630;28;20129;-61
2022/09/09 09:29:17;;;;;;;8.82;2.38;;;;;;;17.23;88.90;100595.13;5072732;28;20040;-62
2022/09/09 09:31:54;;;;;;;5.72;1.85;;;;;;;17.33;88.10;100604.34;5072816;28;20033;-62
2022/09/09 09:34:19;;;;;;;10.13;2.35;;;;;;;17.22;87.78;100593.41;5072528;28;20443;-62
2022/09/09 09:36:52;;;;;;;8.60;2.17;;;;;;;17.29;87.18;100594.84;5072532;28;20074;-62
2022/09/09 09:39:36;;;;;;;7.70;2.00;;;;;;;17.33;88.44;100593.75;5072470;28;20032;-62
2022/09/09 09:42:13;;;;;;;12.68;2.30;;;;;;;17.45;89.06;100589.72;5070008;28;20068;-62
2022/09/09 09:44:38;;;;;;;9.63;1.90;;;;;;;17.46;86.54;100581.72;5071926;28;20048;-62
2022/09/09 09:47:15;;;;;;;8.27;2.25;;;;;;;17.37;88.32;100590.91;5071906;28;20028;-63
2022/09/09 09:49:59;;;;;;;8.20;2.58;;;;;;;17.37;87.39;100579.47;5072034;28;20503;-63
2022/09/09 09:52:26;;;;;;;6.97;1.92;;;;;;;17.40;86.57;100580.19;5071360;28;20463;-62
2022/09/09 09:54:53;;;;;;;11.18;2.00;;;;;;;17.42;86.52;100574.84;5071882;28;20114;-63
2022/09/09 09:57:26;;;;;;;10.80;2.00;;;;;;;17.34;87.20;100587.53;5072404;28;20069;-61
2022/09/09 10:00:14;;;;;;;7.47;2.22;;;;;;;17.31;88.10;100595.66;5072172;28;20212;-61
2022/09/09 10:02:43;;;;;;;11.40;2.50;;;;;;;17.22;90.43;100588.09;5071887;28;20043;-61
2022/09/09 10:05:25;;;;;;;10.38;2.63;;;;;;;17.14;91.36;100590.25;5071824;28;20028;-62
2022/09/09 10:08:14;;;;;;;10.20;2.20;;;;;;;17.11;90.90;100585.94;5071829;28;20068;-62
2022/09/09 10:10:53;;;;;;;8.82;2.10;;;;;;;17.11;92.60;100591.25;5071923;28;20111;-62
2022/09/09 10:13:42;;;;;;;10.82;2.22;;;;;;;17.25;91.53;100583.53;5066051;28;20043;-62
2022/09/09 10:16:24;;;;;;;9.05;2.40;;;;;;;17.18;92.07;100597.94;5071613;28;20127;-62
2022/09/09 10:19:00;;;;;;;7.75;2.00;;;;;;;17.10;93.39;100586.88;5071101;28;20064;-61
2022/09/09 10:21:32;;;;;;;9.60;2.40;;;;;;;17.17;93.00;100590.94;5071623;28;20036;-62
2022/09/09 10:24:27;;;;;;;9.02;2.28;;;;;;;17.25;93.02;100595.91;5071571;28;20170;-62
2022/09/09 10:27:04;;;;;;;6.20;2.15;;;;;;;17.08;93.94;100609.88;5071280;28;20071;-61
2022/09/09 10:29:37;;;;;;;8.30;2.20;;;;;;;16.93;96.01;100611.41;5071534;28;20037;-61
2022/09/09 10:32:11;;;;;;;7.20;2.25;;;;;;;16.86;95.76;100607.31;5071355;28;20039;-60
2022/09/09 10:34:52;;;;;;;7.10;2.80;;;;;;;16.83;96.69;100612.72;5071476;28;20036;-61
2022/09/09 10:37:51;;;;;;;6.07;2.22;;;;;;;16.93;96.20;100619.34;5071286;28;20086;-61
2022/09/09 10:40:38;;;;;;;7.53;2.13;;;;;;;16.84;96.93;100606.50;5071566;28;20037;-61
2022/09/09 10:43:16;;;;;;;7.20;2.05;;;;;;;16.85;96.82;100602.06;5071297;28;20127;-62
2022/09/09 10:46:14;;;;;;;10.15;2.75;;;;;;;16.81;97.41;100614.56;5071423;28;20131;-63
2022/09/09 10:49:12;;;;;;;8.57;2.55;;;;;;;16.92;98.10;100606.19;5071282;28;20032;-62
2022/09/09 10:51:40;;;;;;;5.85;2.20;;;;;;;17.00;97.02;100604.06;5071383;28;20367;-62
2022/09/09 10:54:24;;;;;;;8.45;2.00;;;;;;;17.13;97.08;100605.25;5071466;28;20036;-62
2022/09/09 10:56:56;;;;;;;8.65;2.40;;;;;;;17.20;96.69;100611.09;5071344;28;20036;-61
2022/09/09 10:59:26;;;;;;;;;;;;;;;17.40;95.50;100603.16;5056462;28;20076;-61
2022/09/09 11:01:57;;;;;;;6.78;2.28;;;;;;;17.15;95.61;100602.50;5051331;28;19974;-62
2022/09/09 11:04:32;;;;;;;6.47;2.17;;;;;;;17.15;95.93;100599.88;5051298;28;20039;-63
2022/09/09 11:07:03;;;;;;;8.25;2.40;;;;;;;17.15;96.77;100607.81;5051095;28;20043;-62
2022/09/09 11:09:33;;;;;;;7.38;2.35;;;;;;;17.11;97.16;100600.97;5059902;28;20050;-64
2022/09/09 11:12:03;;;;;;;7.25;2.30;;;;;;;17.10;97.40;100599.22;5071180;28;20103;-62
2022/09/09 11:14:37;;;;;;;5.35;2.22;;;;;;;17.25;97.28;100612.63;5071296;28;20046;-62
2022/09/09 11:17:21;;;;;;;6.75;2.00;;;;;;;17.31;97.37;100596.50;5071015;28;20394;-62
2022/09/09 11:19:47;;;;;;;5.97;2.10;;;;;;;17.37;96.69;100612.06;5071432;28;20044;-62
2022/09/09 11:22:32;;;;;;;7.28;2.30;;;;;;;17.23;97.38;100590.69;5071104;28;20032;-60
2022/09/09 11:25:04;;;;;;;5.70;2.67;;;;;;;17.23;97.44;100603.91;5070962;28;20078;-62
2022/09/09 11:27:50;;;;;;;9.18;2.40;;;;;;;17.21;99.16;100602.25;5070974;28;20124;-62
2022/09/09 11:30:25;;;;;;;7.78;2.33;;;;;;;17.12;98.14;100592.97;5070284;28;20040;-63
2022/09/09 11:33:15;;;;;;;9.05;2.38;;;;;;;17.18;97.54;100603.25;5074413;28;20032;-62
2022/09/09 11:36:07;;;;;;;6.10;2.08;;;;;;;17.19;97.87;100598.81;5074204;28;20102;-63
2022/09/09 11:38:47;;;;;;;8.23;2.10;;;;;;;17.14;96.41;100596.41;5068037;28;20030;-62
2022/09/09 11:41:15;;;;;;;4.75;2.15;;;;;;;17.07;97.50;100607.31;5072205;28;20383;-62